Tuesday, September 02, 2014
06:45 UTC
  |  Log In   |  Register Free
Airport Search:

Powell Municipal Airport
(KPOY)

Powell Municipal Airport Diagram
No Airport Diagram Available

FAA data valid effective July 24, 2014 until September 18, 2014 (unless otherwise noted).

 
 
 
 
 
 
 
 
 
 
 
 
 
 

Current Aviation Weather for Powell Municipal Airport (KPOY)

The most recent METAR observation for KCOD was updated at: 0555 UTC
METAR Summary (Translated METAR)
KCOD
020555Z RMK AO1
KGEY
(40.3 nm SE from KCOD)
020553Z AUTO 12004KT 10SM CLR 13/07 A2999 RMK AO2 SLP136 T01330067 10222 20133 51006 $
TAF Summary (Translated TAF)
KCOD
020522Z 0206/0306 21007KT P6SM SKC AMD LTD TO CLD VIS AND WIND
  Airport Weather Conditions for KPOY

Current weather conditions are
not available for POY


The nearest NOAA weather station
is at COD, (23 nm SW from POY)
  
 Current Weather at COD
54° F
Partly Cloudy
West winds at 3.5 mph
COD NOAA Radar

Pressure: 30.01 in
Humidity: 58%
Wind: West at 3.5 MPH (3 KT)
Dew Point: 39.2°F
Visibility: 10.00 mi


Airport Weather Forecast for KPOY

Translated METAR and TAF for KCOD
Translated METAR for KCOD (0639 UTC 02 September 2014)
found at http://aviationweather.gov/adds/metars/
 
Forecast for: KCOD (CODY , WY, US)
TAF Text: KCOD 020522Z 0206/0306 21007KT P6SM SKC AMD LTD TO CLD VIS AND WIND
Forecast period: 0600 UTC 02 September 2014 to 0600 UTC 03 September 2014
Forecast type: FROM: standard forecast or significant change
Winds: from the SSW (210 degrees) at 8 MPH (7 knots; 3.6 m/s)
Visibility: 6 or more miles (10+ km)
Clouds: clear skies
Weather: no significant weather forecast for this period
Translated TAF for KCOD

There is no translated TAF available for this airport

Find All Airport Services Find A Hotel Find A Rental Car Find A Golf Course Find A Restaurant $100 Hamburger



FBO's on the Field
FBO Company Facility Photos Services Transportation Aviation Fuel Prices: Prices include tax
Catering Weather Repair Courtesy Rental Type 100LL JetA JetA+ MOGAS 8087
 
City of Powell

This FBO has not yet been rated
FS:Independent
Last Updated: Aug-20
Login to update fuel prices
SS:
Contact City of PowellMore FBO Information
 
Add another FBO Facility Photos Catering Weather Repair Courtesy Rental Type 100LL JetA JetA+ MOGAS 8087
Services Transportation Aviation Fuel Prices: Prices include tax


GlobalAir.com Airport Resource Center model-print
model-print
model-print
model-print